sensor_id;sensor_type;location;lat;lon;timestamp;temperature;humidity
76996;DHT22;65929;49.062;10.338;2023-05-18T00:00:54;4.30;84.30
76996;DHT22;65929;49.062;10.338;2023-05-18T00:01:55;4.30;84.40
76996;DHT22;65929;49.062;10.338;2023-05-18T00:02:56;4.30;84.50
76996;DHT22;65929;49.062;10.338;2023-05-18T00:03:57;4.30;84.60
76996;DHT22;65929;49.062;10.338;2023-05-18T00:04:58;4.20;84.40
76996;DHT22;65929;49.062;10.338;2023-05-18T00:06:06;4.20;84.60
76996;DHT22;65929;49.062;10.338;2023-05-18T00:07:08;4.20;84.50
76996;DHT22;65929;49.062;10.338;2023-05-18T00:08:09;4.20;84.50
76996;DHT22;65929;49.062;10.338;2023-05-18T00:09:10;4.20;84.40
76996;DHT22;65929;49.062;10.338;2023-05-18T00:10:31;4.10;84.40
76996;DHT22;65929;49.062;10.338;2023-05-18T00:11:32;4.10;84.40
76996;DHT22;65929;49.062;10.338;2023-05-18T00:12:37;4.10;84.70
76996;DHT22;65929;49.062;10.338;2023-05-18T00:13:38;4.00;84.70
76996;DHT22;65929;49.062;10.338;2023-05-18T00:14:39;4.00;84.80
76996;DHT22;65929;49.062;10.338;2023-05-18T00:15:42;4.00;84.80
76996;DHT22;65929;49.062;10.338;2023-05-18T00:16:46;4.00;84.90
76996;DHT22;65929;49.062;10.338;2023-05-18T00:17:47;4.10;84.90
76996;DHT22;65929;49.062;10.338;2023-05-18T00:18:59;4.10;84.60
76996;DHT22;65929;49.062;10.338;2023-05-18T00:20:22;4.00;84.50
76996;DHT22;65929;49.062;10.338;2023-05-18T00:21:31;4.00;84.60
76996;DHT22;65929;49.062;10.338;2023-05-18T00:22:33;4.00;84.60
76996;DHT22;65929;49.062;10.338;2023-05-18T00:23:34;4.00;84.70
76996;DHT22;65929;49.062;10.338;2023-05-18T00:24:39;4.00;85.00
76996;DHT22;65929;49.062;10.338;2023-05-18T00:25:40;4.00;84.80
76996;DHT22;65929;49.062;10.338;2023-05-18T00:26:45;3.90;84.80
76996;DHT22;65929;49.062;10.338;2023-05-18T00:27:46;3.90;84.90
76996;DHT22;65929;49.062;10.338;2023-05-18T00:28:49;3.90;85.00
76996;DHT22;65929;49.062;10.338;2023-05-18T00:30:20;3.90;84.80
76996;DHT22;65929;49.062;10.338;2023-05-18T00:31:28;3.90;84.50
76996;DHT22;65929;49.062;10.338;2023-05-18T00:32:30;3.90;84.50
76996;DHT22;65929;49.062;10.338;2023-05-18T00:33:31;3.90;84.80
76996;DHT22;65929;49.062;10.338;2023-05-18T00:34:32;3.90;84.70
76996;DHT22;65929;49.062;10.338;2023-05-18T00:35:33;3.90;84.70
76996;DHT22;65929;49.062;10.338;2023-05-18T00:36:35;3.90;84.80
76996;DHT22;65929;49.062;10.338;2023-05-18T00:37:36;3.90;84.60
76996;DHT22;65929;49.062;10.338;2023-05-18T00:38:37;3.90;84.60
76996;DHT22;65929;49.062;10.338;2023-05-18T00:39:38;3.90;84.40
76996;DHT22;65929;49.062;10.338;2023-05-18T00:40:39;3.80;84.50
76996;DHT22;65929;49.062;10.338;2023-05-18T00:41:40;3.80;85.00
76996;DHT22;65929;49.062;10.338;2023-05-18T00:42:41;3.80;84.70
76996;DHT22;65929;49.062;10.338;2023-05-18T00:43:42;3.80;84.60
76996;DHT22;65929;49.062;10.338;2023-05-18T00:44:43;3.70;84.70
76996;DHT22;65929;49.062;10.338;2023-05-18T00:45:44;3.70;84.50
76996;DHT22;65929;49.062;10.338;2023-05-18T00:46:45;3.70;84.40
76996;DHT22;65929;49.062;10.338;2023-05-18T00:47:46;3.70;84.40
76996;DHT22;65929;49.062;10.338;2023-05-18T00:48:49;3.60;84.60
76996;DHT22;65929;49.062;10.338;2023-05-18T00:49:50;3.60;84.90
76996;DHT22;65929;49.062;10.338;2023-05-18T00:50:52;3.60;85.30
76996;DHT22;65929;49.062;10.338;2023-05-18T00:51:55;3.60;85.40
76996;DHT22;65929;49.062;10.338;2023-05-18T00:52:56;3.60;85.70
76996;DHT22;65929;49.062;10.338;2023-05-18T00:53:59;3.60;85.60
76996;DHT22;65929;49.062;10.338;2023-05-18T00:55:01;3.60;85.50
76996;DHT22;65929;49.062;10.338;2023-05-18T00:56:02;3.50;85.20
76996;DHT22;65929;49.062;10.338;2023-05-18T00:57:04;3.50;85.10
76996;DHT22;65929;49.062;10.338;2023-05-18T00:58:06;3.50;85.70
76996;DHT22;65929;49.062;10.338;2023-05-18T00:59:07;3.50;85.80
76996;DHT22;65929;49.062;10.338;2023-05-18T01:00:12;3.50;85.70
76996;DHT22;65929;49.062;10.338;2023-05-18T01:01:14;3.50;85.60
76996;DHT22;65929;49.062;10.338;2023-05-18T01:02:17;3.50;85.40
76996;DHT22;65929;49.062;10.338;2023-05-18T01:03:19;3.50;85.30
76996;DHT22;65929;49.062;10.338;2023-05-18T01:04:20;3.50;85.50
76996;DHT22;65929;49.062;10.338;2023-05-18T01:05:24;3.50;85.30
76996;DHT22;65929;49.062;10.338;2023-05-18T01:06:25;3.40;85.20
76996;DHT22;65929;49.062;10.338;2023-05-18T01:07:27;3.40;85.20
76996;DHT22;65929;49.062;10.338;2023-05-18T01:08:28;3.40;85.20
76996;DHT22;65929;49.062;10.338;2023-05-18T01:09:29;3.30;85.10
76996;DHT22;65929;49.062;10.338;2023-05-18T01:10:32;3.30;85.20
76996;DHT22;65929;49.062;10.338;2023-05-18T01:11:47;3.30;85.30
76996;DHT22;65929;49.062;10.338;2023-05-18T01:12:54;3.30;85.60
76996;DHT22;65929;49.062;10.338;2023-05-18T01:14:02;3.30;85.90
76996;DHT22;65929;49.062;10.338;2023-05-18T01:15:07;3.30;86.00
76996;DHT22;65929;49.062;10.338;2023-05-18T01:16:12;3.30;86.30
76996;DHT22;65929;49.062;10.338;2023-05-18T01:17:24;3.30;86.20
76996;DHT22;65929;49.062;10.338;2023-05-18T01:18:35;3.30;86.30
76996;DHT22;65929;49.062;10.338;2023-05-18T01:20:03;3.20;86.50
76996;DHT22;65929;49.062;10.338;2023-05-18T01:21:10;3.20;86.60
76996;DHT22;65929;49.062;10.338;2023-05-18T01:22:32;3.10;86.60
76996;DHT22;65929;49.062;10.338;2023-05-18T01:24:09;3.10;86.70
76996;DHT22;65929;49.062;10.338;2023-05-18T01:25:20;3.10;86.80
76996;DHT22;65929;49.062;10.338;2023-05-18T01:26:33;3.10;86.70
76996;DHT22;65929;49.062;10.338;2023-05-18T01:27:37;3.10;86.70
76996;DHT22;65929;49.062;10.338;2023-05-18T01:28:44;3.10;86.60
76996;DHT22;65929;49.062;10.338;2023-05-18T01:29:47;3.10;86.40
76996;DHT22;65929;49.062;10.338;2023-05-18T01:30:49;3.10;86.30
76996;DHT22;65929;49.062;10.338;2023-05-18T01:31:51;3.10;86.40
76996;DHT22;65929;49.062;10.338;2023-05-18T01:32:52;3.20;86.30
76996;DHT22;65929;49.062;10.338;2023-05-18T01:33:53;3.30;85.90
76996;DHT22;65929;49.062;10.338;2023-05-18T01:34:55;3.30;85.60
76996;DHT22;65929;49.062;10.338;2023-05-18T01:35:56;3.30;85.60
76996;DHT22;65929;49.062;10.338;2023-05-18T01:36:57;3.40;85.20
76996;DHT22;65929;49.062;10.338;2023-05-18T01:37:57;3.50;84.90
76996;DHT22;65929;49.062;10.338;2023-05-18T01:38:59;3.50;84.70
76996;DHT22;65929;49.062;10.338;2023-05-18T01:40:01;3.50;84.50
76996;DHT22;65929;49.062;10.338;2023-05-18T01:41:11;3.50;84.60
76996;DHT22;65929;49.062;10.338;2023-05-18T01:42:20;3.50;84.30
76996;DHT22;65929;49.062;10.338;2023-05-18T01:43:28;3.50;84.00
76996;DHT22;65929;49.062;10.338;2023-05-18T01:44:37;3.50;83.80
76996;DHT22;65929;49.062;10.338;2023-05-18T01:45:42;3.50;83.60
76996;DHT22;65929;49.062;10.338;2023-05-18T01:46:52;3.60;83.70
76996;DHT22;65929;49.062;10.338;2023-05-18T01:47:56;3.60;83.80
76996;DHT22;65929;49.062;10.338;2023-05-18T01:49:04;3.60;83.50
76996;DHT22;65929;49.062;10.338;2023-05-18T01:50:10;3.60;83.00
76996;DHT22;65929;49.062;10.338;2023-05-18T01:51:15;3.60;82.80
76996;DHT22;65929;49.062;10.338;2023-05-18T01:52:24;3.60;82.70
76996;DHT22;65929;49.062;10.338;2023-05-18T01:53:32;3.70;82.60
76996;DHT22;65929;49.062;10.338;2023-05-18T01:54:41;3.70;82.30
76996;DHT22;65929;49.062;10.338;2023-05-18T01:55:44;3.70;82.20
76996;DHT22;65929;49.062;10.338;2023-05-18T01:56:48;3.70;82.30
76996;DHT22;65929;49.062;10.338;2023-05-18T01:57:53;3.70;82.10
76996;DHT22;65929;49.062;10.338;2023-05-18T01:58:54;3.60;82.10
76996;DHT22;65929;49.062;10.338;2023-05-18T01:59:57;3.60;82.00
76996;DHT22;65929;49.062;10.338;2023-05-18T02:00:59;3.60;82.20
76996;DHT22;65929;49.062;10.338;2023-05-18T02:02:01;3.60;82.70
76996;DHT22;65929;49.062;10.338;2023-05-18T02:03:02;3.60;82.60
76996;DHT22;65929;49.062;10.338;2023-05-18T02:04:07;3.60;82.60
76996;DHT22;65929;49.062;10.338;2023-05-18T02:05:09;3.60;82.50
76996;DHT22;65929;49.062;10.338;2023-05-18T02:06:13;3.50;82.50
76996;DHT22;65929;49.062;10.338;2023-05-18T02:07:14;3.60;82.30
76996;DHT22;65929;49.062;10.338;2023-05-18T02:08:15;3.50;82.40
76996;DHT22;65929;49.062;10.338;2023-05-18T02:09:17;3.50;82.40
76996;DHT22;65929;49.062;10.338;2023-05-18T02:10:18;3.60;81.90
76996;DHT22;65929;49.062;10.338;2023-05-18T02:11:19;3.60;81.90
76996;DHT22;65929;49.062;10.338;2023-05-18T02:12:21;3.60;82.10
76996;DHT22;65929;49.062;10.338;2023-05-18T02:13:23;3.60;81.80
76996;DHT22;65929;49.062;10.338;2023-05-18T02:14:24;3.50;82.10
76996;DHT22;65929;49.062;10.338;2023-05-18T02:15:25;3.50;82.20
76996;DHT22;65929;49.062;10.338;2023-05-18T02:16:26;3.50;82.50
76996;DHT22;65929;49.062;10.338;2023-05-18T02:17:27;3.40;82.80
76996;DHT22;65929;49.062;10.338;2023-05-18T02:18:28;3.30;83.00
76996;DHT22;65929;49.062;10.338;2023-05-18T02:19:29;3.30;83.00
76996;DHT22;65929;49.062;10.338;2023-05-18T02:20:33;3.30;83.00
76996;DHT22;65929;49.062;10.338;2023-05-18T02:21:33;3.20;83.20
76996;DHT22;65929;49.062;10.338;2023-05-18T02:22:36;3.20;83.50
76996;DHT22;65929;49.062;10.338;2023-05-18T02:23:36;3.10;83.80
76996;DHT22;65929;49.062;10.338;2023-05-18T02:24:37;3.10;84.50
76996;DHT22;65929;49.062;10.338;2023-05-18T02:25:38;3.10;84.70
76996;DHT22;65929;49.062;10.338;2023-05-18T02:26:39;3.00;85.00
76996;DHT22;65929;49.062;10.338;2023-05-18T02:27:41;3.00;85.50
76996;DHT22;65929;49.062;10.338;2023-05-18T02:28:43;2.90;86.10
76996;DHT22;65929;49.062;10.338;2023-05-18T02:29:44;2.90;86.90
76996;DHT22;65929;49.062;10.338;2023-05-18T02:30:46;2.90;87.20
76996;DHT22;65929;49.062;10.338;2023-05-18T02:31:46;2.80;87.30
76996;DHT22;65929;49.062;10.338;2023-05-18T02:32:47;2.80;87.60
76996;DHT22;65929;49.062;10.338;2023-05-18T02:33:50;2.80;87.80
76996;DHT22;65929;49.062;10.338;2023-05-18T02:34:51;2.80;87.60
76996;DHT22;65929;49.062;10.338;2023-05-18T02:35:52;2.80;88.20
76996;DHT22;65929;49.062;10.338;2023-05-18T02:36:53;2.80;89.00
76996;DHT22;65929;49.062;10.338;2023-05-18T02:37:57;2.80;89.10
76996;DHT22;65929;49.062;10.338;2023-05-18T02:38:58;2.80;88.80
76996;DHT22;65929;49.062;10.338;2023-05-18T02:39:59;2.80;88.20
76996;DHT22;65929;49.062;10.338;2023-05-18T02:41:00;2.80;87.70
76996;DHT22;65929;49.062;10.338;2023-05-18T02:42:01;2.80;87.40
76996;DHT22;65929;49.062;10.338;2023-05-18T02:43:02;2.80;87.10
76996;DHT22;65929;49.062;10.338;2023-05-18T02:44:05;2.80;86.90
76996;DHT22;65929;49.062;10.338;2023-05-18T02:45:07;2.70;86.90
76996;DHT22;65929;49.062;10.338;2023-05-18T02:46:08;2.70;87.30
76996;DHT22;65929;49.062;10.338;2023-05-18T02:47:09;2.70;88.40
76996;DHT22;65929;49.062;10.338;2023-05-18T02:48:10;2.70;88.20
76996;DHT22;65929;49.062;10.338;2023-05-18T02:49:11;2.70;88.50
76996;DHT22;65929;49.062;10.338;2023-05-18T02:50:12;2.70;88.40
76996;DHT22;65929;49.062;10.338;2023-05-18T02:51:13;2.70;88.20
76996;DHT22;65929;49.062;10.338;2023-05-18T02:52:14;2.60;87.80
76996;DHT22;65929;49.062;10.338;2023-05-18T02:53:15;2.60;87.90
76996;DHT22;65929;49.062;10.338;2023-05-18T02:54:16;2.60;88.00
76996;DHT22;65929;49.062;10.338;2023-05-18T02:55:17;2.70;88.10
76996;DHT22;65929;49.062;10.338;2023-05-18T02:56:18;2.70;87.90
76996;DHT22;65929;49.062;10.338;2023-05-18T02:57:19;2.70;87.70
76996;DHT22;65929;49.062;10.338;2023-05-18T02:58:20;2.70;87.40
76996;DHT22;65929;49.062;10.338;2023-05-18T02:59:26;2.50;87.50
76996;DHT22;65929;49.062;10.338;2023-05-18T03:00:27;2.50;87.60
76996;DHT22;65929;49.062;10.338;2023-05-18T03:01:30;2.50;87.90
76996;DHT22;65929;49.062;10.338;2023-05-18T03:02:31;2.50;87.70
76996;DHT22;65929;49.062;10.338;2023-05-18T03:03:32;2.50;87.40
76996;DHT22;65929;49.062;10.338;2023-05-18T03:04:33;2.50;87.20
76996;DHT22;65929;49.062;10.338;2023-05-18T03:05:34;2.50;87.30
76996;DHT22;65929;49.062;10.338;2023-05-18T03:06:35;2.50;87.30
76996;DHT22;65929;49.062;10.338;2023-05-18T03:07:37;2.40;87.40
76996;DHT22;65929;49.062;10.338;2023-05-18T03:08:38;2.40;87.50
76996;DHT22;65929;49.062;10.338;2023-05-18T03:09:40;2.40;88.00
76996;DHT22;65929;49.062;10.338;2023-05-18T03:10:41;2.40;88.20
76996;DHT22;65929;49.062;10.338;2023-05-18T03:11:42;2.40;88.20
76996;DHT22;65929;49.062;10.338;2023-05-18T03:12:43;2.40;88.10
76996;DHT22;65929;49.062;10.338;2023-05-18T03:13:44;2.40;88.00
76996;DHT22;65929;49.062;10.338;2023-05-18T03:14:46;2.40;88.00
76996;DHT22;65929;49.062;10.338;2023-05-18T03:15:47;2.40;88.20
76996;DHT22;65929;49.062;10.338;2023-05-18T03:16:50;2.50;88.00
76996;DHT22;65929;49.062;10.338;2023-05-18T03:17:53;2.50;87.50
76996;DHT22;65929;49.062;10.338;2023-05-18T03:18:55;2.50;87.10
76996;DHT22;65929;49.062;10.338;2023-05-18T03:19:58;2.50;86.80
76996;DHT22;65929;49.062;10.338;2023-05-18T03:20:59;2.50;86.70
76996;DHT22;65929;49.062;10.338;2023-05-18T03:22:01;2.50;86.60
76996;DHT22;65929;49.062;10.338;2023-05-18T03:23:03;2.50;86.60
76996;DHT22;65929;49.062;10.338;2023-05-18T03:24:05;2.50;86.60
76996;DHT22;65929;49.062;10.338;2023-05-18T03:25:06;2.50;86.70
76996;DHT22;65929;49.062;10.338;2023-05-18T03:26:07;2.50;86.40
76996;DHT22;65929;49.062;10.338;2023-05-18T03:27:11;2.50;86.40
76996;DHT22;65929;49.062;10.338;2023-05-18T03:28:12;2.50;86.20
76996;DHT22;65929;49.062;10.338;2023-05-18T03:29:13;2.50;86.30
76996;DHT22;65929;49.062;10.338;2023-05-18T03:30:16;2.50;86.30
76996;DHT22;65929;49.062;10.338;2023-05-18T03:31:17;2.50;86.10
76996;DHT22;65929;49.062;10.338;2023-05-18T03:32:18;2.50;86.10
76996;DHT22;65929;49.062;10.338;2023-05-18T03:33:19;2.50;86.40
76996;DHT22;65929;49.062;10.338;2023-05-18T03:34:20;2.50;86.30
76996;DHT22;65929;49.062;10.338;2023-05-18T03:35:21;2.50;86.70
76996;DHT22;65929;49.062;10.338;2023-05-18T03:36:22;2.50;86.70
76996;DHT22;65929;49.062;10.338;2023-05-18T03:37:25;2.50;86.80
76996;DHT22;65929;49.062;10.338;2023-05-18T03:38:26;2.50;86.90
76996;DHT22;65929;49.062;10.338;2023-05-18T03:39:27;2.50;87.00
76996;DHT22;65929;49.062;10.338;2023-05-18T03:40:28;2.50;87.20
76996;DHT22;65929;49.062;10.338;2023-05-18T03:41:30;2.50;87.50
76996;DHT22;65929;49.062;10.338;2023-05-18T03:42:31;2.50;87.60
76996;DHT22;65929;49.062;10.338;2023-05-18T03:43:32;2.50;87.50
76996;DHT22;65929;49.062;10.338;2023-05-18T03:44:33;2.50;87.10
76996;DHT22;65929;49.062;10.338;2023-05-18T03:45:35;2.50;87.00
76996;DHT22;65929;49.062;10.338;2023-05-18T03:46:36;2.60;87.00
76996;DHT22;65929;49.062;10.338;2023-05-18T03:47:38;2.70;86.60
76996;DHT22;65929;49.062;10.338;2023-05-18T03:48:39;2.70;86.30
76996;DHT22;65929;49.062;10.338;2023-05-18T03:49:40;2.80;85.70
76996;DHT22;65929;49.062;10.338;2023-05-18T03:50:41;2.80;85.60
76996;DHT22;65929;49.062;10.338;2023-05-18T03:51:42;2.90;85.40
76996;DHT22;65929;49.062;10.338;2023-05-18T03:52:43;2.90;85.10
76996;DHT22;65929;49.062;10.338;2023-05-18T03:53:44;2.90;85.00
76996;DHT22;65929;49.062;10.338;2023-05-18T03:54:45;2.90;84.90
76996;DHT22;65929;49.062;10.338;2023-05-18T03:55:47;2.90;85.10
76996;DHT22;65929;49.062;10.338;2023-05-18T03:56:51;2.90;85.00
76996;DHT22;65929;49.062;10.338;2023-05-18T03:57:52;3.00;84.70
76996;DHT22;65929;49.062;10.338;2023-05-18T03:58:53;3.00;84.30
76996;DHT22;65929;49.062;10.338;2023-05-18T03:59:54;3.10;84.40
76996;DHT22;65929;49.062;10.338;2023-05-18T04:00:58;3.10;84.50
76996;DHT22;65929;49.062;10.338;2023-05-18T04:02:00;3.10;84.40
76996;DHT22;65929;49.062;10.338;2023-05-18T04:03:01;3.10;84.20
76996;DHT22;65929;49.062;10.338;2023-05-18T04:04:03;3.10;84.40
76996;DHT22;65929;49.062;10.338;2023-05-18T04:05:04;3.10;84.10
76996;DHT22;65929;49.062;10.338;2023-05-18T04:06:06;3.10;83.80
76996;DHT22;65929;49.062;10.338;2023-05-18T04:07:06;3.10;83.40
76996;DHT22;65929;49.062;10.338;2023-05-18T04:08:07;3.20;83.20
76996;DHT22;65929;49.062;10.338;2023-05-18T04:09:08;3.20;83.10
76996;DHT22;65929;49.062;10.338;2023-05-18T04:10:09;3.30;83.20
76996;DHT22;65929;49.062;10.338;2023-05-18T04:11:11;3.30;83.10
76996;DHT22;65929;49.062;10.338;2023-05-18T04:12:12;3.30;83.10
76996;DHT22;65929;49.062;10.338;2023-05-18T04:13:13;3.30;82.90
76996;DHT22;65929;49.062;10.338;2023-05-18T04:14:14;3.30;82.80
76996;DHT22;65929;49.062;10.338;2023-05-18T04:15:16;3.40;82.60
76996;DHT22;65929;49.062;10.338;2023-05-18T04:16:19;3.50;82.30
76996;DHT22;65929;49.062;10.338;2023-05-18T04:17:21;3.50;82.20
76996;DHT22;65929;49.062;10.338;2023-05-18T04:18:22;3.50;82.20
76996;DHT22;65929;49.062;10.338;2023-05-18T04:19:23;3.50;82.00
76996;DHT22;65929;49.062;10.338;2023-05-18T04:20:24;3.50;82.00
76996;DHT22;65929;49.062;10.338;2023-05-18T04:21:27;3.60;81.60
76996;DHT22;65929;49.062;10.338;2023-05-18T04:22:41;3.60;81.50
76996;DHT22;65929;49.062;10.338;2023-05-18T04:23:43;3.60;81.60
76996;DHT22;65929;49.062;10.338;2023-05-18T04:24:44;3.70;81.40
76996;DHT22;65929;49.062;10.338;2023-05-18T04:25:47;3.70;81.10
76996;DHT22;65929;49.062;10.338;2023-05-18T04:26:48;3.70;81.00
76996;DHT22;65929;49.062;10.338;2023-05-18T04:27:49;3.70;80.90
76996;DHT22;65929;49.062;10.338;2023-05-18T04:28:50;3.80;80.90
76996;DHT22;65929;49.062;10.338;2023-05-18T04:29:52;3.80;80.90
76996;DHT22;65929;49.062;10.338;2023-05-18T04:30:53;3.80;80.90
76996;DHT22;65929;49.062;10.338;2023-05-18T04:31:55;3.80;80.80
76996;DHT22;65929;49.062;10.338;2023-05-18T04:33:02;3.80;80.90
76996;DHT22;65929;49.062;10.338;2023-05-18T04:34:03;3.80;80.90
76996;DHT22;65929;49.062;10.338;2023-05-18T04:35:06;3.80;80.80
76996;DHT22;65929;49.062;10.338;2023-05-18T04:36:07;3.90;80.80
76996;DHT22;65929;49.062;10.338;2023-05-18T04:37:09;3.90;80.60
76996;DHT22;65929;49.062;10.338;2023-05-18T04:38:10;3.90;80.60
76996;DHT22;65929;49.062;10.338;2023-05-18T04:39:11;3.90;80.70
76996;DHT22;65929;49.062;10.338;2023-05-18T04:40:12;3.90;80.50
76996;DHT22;65929;49.062;10.338;2023-05-18T04:41:13;4.00;80.30
76996;DHT22;65929;49.062;10.338;2023-05-18T04:42:19;4.00;80.00
76996;DHT22;65929;49.062;10.338;2023-05-18T04:43:22;4.10;80.00
76996;DHT22;65929;49.062;10.338;2023-05-18T04:44:23;4.10;80.00
76996;DHT22;65929;49.062;10.338;2023-05-18T04:45:25;4.10;79.80
76996;DHT22;65929;49.062;10.338;2023-05-18T04:46:26;4.10;79.80
76996;DHT22;65929;49.062;10.338;2023-05-18T04:47:29;4.20;79.80
76996;DHT22;65929;49.062;10.338;2023-05-18T04:48:30;4.20;79.70
76996;DHT22;65929;49.062;10.338;2023-05-18T04:49:37;4.20;79.90
76996;DHT22;65929;49.062;10.338;2023-05-18T04:50:38;4.30;79.40
76996;DHT22;65929;49.062;10.338;2023-05-18T04:51:39;4.30;79.40
76996;DHT22;65929;49.062;10.338;2023-05-18T04:52:42;4.30;79.40
76996;DHT22;65929;49.062;10.338;2023-05-18T04:53:48;4.40;79.40
76996;DHT22;65929;49.062;10.338;2023-05-18T04:54:49;4.40;78.90
76996;DHT22;65929;49.062;10.338;2023-05-18T04:55:51;4.40;78.90
76996;DHT22;65929;49.062;10.338;2023-05-18T04:56:52;4.50;78.90
76996;DHT22;65929;49.062;10.338;2023-05-18T04:57:53;4.50;78.70
76996;DHT22;65929;49.062;10.338;2023-05-18T04:58:56;4.50;78.50
76996;DHT22;65929;49.062;10.338;2023-05-18T04:59:58;4.50;78.60
76996;DHT22;65929;49.062;10.338;2023-05-18T05:00:59;4.50;78.00
76996;DHT22;65929;49.062;10.338;2023-05-18T05:02:00;4.70;77.80
76996;DHT22;65929;49.062;10.338;2023-05-18T05:03:03;4.70;77.80
76996;DHT22;65929;49.062;10.338;2023-05-18T05:04:04;4.70;77.80
76996;DHT22;65929;49.062;10.338;2023-05-18T05:05:06;4.70;77.60
76996;DHT22;65929;49.062;10.338;2023-05-18T05:06:08;4.80;77.70
76996;DHT22;65929;49.062;10.338;2023-05-18T05:07:09;4.80;77.50
76996;DHT22;65929;49.062;10.338;2023-05-18T05:08:10;4.90;77.70
76996;DHT22;65929;49.062;10.338;2023-05-18T05:09:12;4.90;77.40
76996;DHT22;65929;49.062;10.338;2023-05-18T05:10:14;4.90;77.40
76996;DHT22;65929;49.062;10.338;2023-05-18T05:11:15;4.90;77.10
76996;DHT22;65929;49.062;10.338;2023-05-18T05:12:16;5.00;77.00
76996;DHT22;65929;49.062;10.338;2023-05-18T05:13:17;5.00;76.90
76996;DHT22;65929;49.062;10.338;2023-05-18T05:14:17;5.00;76.70
76996;DHT22;65929;49.062;10.338;2023-05-18T05:15:19;5.10;76.50
76996;DHT22;65929;49.062;10.338;2023-05-18T05:16:20;5.10;76.50
76996;DHT22;65929;49.062;10.338;2023-05-18T05:17:21;5.20;76.50
76996;DHT22;65929;49.062;10.338;2023-05-18T05:18:24;5.20;76.00
76996;DHT22;65929;49.062;10.338;2023-05-18T05:19:25;5.30;75.70
76996;DHT22;65929;49.062;10.338;2023-05-18T05:20:26;5.30;75.80
76996;DHT22;65929;49.062;10.338;2023-05-18T05:21:27;5.30;75.50
76996;DHT22;65929;49.062;10.338;2023-05-18T05:22:28;5.30;75.70
76996;DHT22;65929;49.062;10.338;2023-05-18T05:23:29;5.40;75.70
76996;DHT22;65929;49.062;10.338;2023-05-18T05:24:30;5.50;75.50
76996;DHT22;65929;49.062;10.338;2023-05-18T05:25:31;5.50;75.40
76996;DHT22;65929;49.062;10.338;2023-05-18T05:26:32;5.50;75.10
76996;DHT22;65929;49.062;10.338;2023-05-18T05:27:33;5.50;74.80
76996;DHT22;65929;49.062;10.338;2023-05-18T05:28:34;5.50;74.60
76996;DHT22;65929;49.062;10.338;2023-05-18T05:29:35;5.50;74.10
76996;DHT22;65929;49.062;10.338;2023-05-18T05:30:36;5.60;74.20
76996;DHT22;65929;49.062;10.338;2023-05-18T05:31:37;5.60;74.10
76996;DHT22;65929;49.062;10.338;2023-05-18T05:32:38;5.70;74.00
76996;DHT22;65929;49.062;10.338;2023-05-18T05:33:40;5.70;74.10
76996;DHT22;65929;49.062;10.338;2023-05-18T05:34:41;5.70;74.20
76996;DHT22;65929;49.062;10.338;2023-05-18T05:35:47;5.70;74.50
76996;DHT22;65929;49.062;10.338;2023-05-18T05:36:48;5.70;74.00
76996;DHT22;65929;49.062;10.338;2023-05-18T05:37:49;5.80;74.00
76996;DHT22;65929;49.062;10.338;2023-05-18T05:38:50;5.80;73.90
76996;DHT22;65929;49.062;10.338;2023-05-18T05:39:51;5.80;74.10
76996;DHT22;65929;49.062;10.338;2023-05-18T05:40:56;5.80;73.80
76996;DHT22;65929;49.062;10.338;2023-05-18T05:41:57;5.90;73.70
76996;DHT22;65929;49.062;10.338;2023-05-18T05:42:58;5.90;73.30
76996;DHT22;65929;49.062;10.338;2023-05-18T05:43:58;5.90;73.40
76996;DHT22;65929;49.062;10.338;2023-05-18T05:44:59;6.00;73.60
76996;DHT22;65929;49.062;10.338;2023-05-18T05:46:01;6.00;73.60
76996;DHT22;65929;49.062;10.338;2023-05-18T05:47:02;6.00;73.90
76996;DHT22;65929;49.062;10.338;2023-05-18T05:48:03;6.00;73.10
76996;DHT22;65929;49.062;10.338;2023-05-18T05:49:06;6.10;73.30
76996;DHT22;65929;49.062;10.338;2023-05-18T05:50:07;6.10;72.70
76996;DHT22;65929;49.062;10.338;2023-05-18T05:51:08;6.10;72.20
76996;DHT22;65929;49.062;10.338;2023-05-18T05:52:09;6.20;72.40
76996;DHT22;65929;49.062;10.338;2023-05-18T05:53:10;6.20;72.30
76996;DHT22;65929;49.062;10.338;2023-05-18T05:54:11;6.20;72.40
76996;DHT22;65929;49.062;10.338;2023-05-18T05:55:12;6.30;72.10
76996;DHT22;65929;49.062;10.338;2023-05-18T05:56:13;6.30;71.70
76996;DHT22;65929;49.062;10.338;2023-05-18T05:57:14;6.40;71.90
76996;DHT22;65929;49.062;10.338;2023-05-18T05:58:15;6.40;71.70
76996;DHT22;65929;49.062;10.338;2023-05-18T05:59:16;6.40;71.50
76996;DHT22;65929;49.062;10.338;2023-05-18T06:00:17;6.40;71.90
76996;DHT22;65929;49.062;10.338;2023-05-18T06:01:18;6.50;72.30
76996;DHT22;65929;49.062;10.338;2023-05-18T06:02:19;6.60;71.80
76996;DHT22;65929;49.062;10.338;2023-05-18T06:03:23;6.70;72.10
76996;DHT22;65929;49.062;10.338;2023-05-18T06:04:25;6.70;71.50
76996;DHT22;65929;49.062;10.338;2023-05-18T06:05:27;6.70;70.80
76996;DHT22;65929;49.062;10.338;2023-05-18T06:06:28;6.80;71.00
76996;DHT22;65929;49.062;10.338;2023-05-18T06:07:28;6.80;70.50
76996;DHT22;65929;49.062;10.338;2023-05-18T06:08:30;6.90;71.10
76996;DHT22;65929;49.062;10.338;2023-05-18T06:09:34;6.90;70.80
76996;DHT22;65929;49.062;10.338;2023-05-18T06:10:35;6.90;70.50
76996;DHT22;65929;49.062;10.338;2023-05-18T06:11:36;7.00;70.30
76996;DHT22;65929;49.062;10.338;2023-05-18T06:12:37;7.00;69.50
76996;DHT22;65929;49.062;10.338;2023-05-18T06:13:41;7.00;69.90
76996;DHT22;65929;49.062;10.338;2023-05-18T06:14:42;7.10;69.80
76996;DHT22;65929;49.062;10.338;2023-05-18T06:15:48;7.20;69.80
76996;DHT22;65929;49.062;10.338;2023-05-18T06:16:49;7.20;68.90
76996;DHT22;65929;49.062;10.338;2023-05-18T06:17:53;7.20;68.70
76996;DHT22;65929;49.062;10.338;2023-05-18T06:18:54;7.20;69.00
76996;DHT22;65929;49.062;10.338;2023-05-18T06:19:56;7.30;69.10
76996;DHT22;65929;49.062;10.338;2023-05-18T06:20:57;7.40;69.50
76996;DHT22;65929;49.062;10.338;2023-05-18T06:21:58;7.40;69.30
76996;DHT22;65929;49.062;10.338;2023-05-18T06:22:59;7.40;68.70
76996;DHT22;65929;49.062;10.338;2023-05-18T06:24:00;7.40;67.60
76996;DHT22;65929;49.062;10.338;2023-05-18T06:25:07;7.50;67.20
76996;DHT22;65929;49.062;10.338;2023-05-18T06:26:10;7.50;67.20
76996;DHT22;65929;49.062;10.338;2023-05-18T06:27:11;7.50;67.60
76996;DHT22;65929;49.062;10.338;2023-05-18T06:28:12;7.50;67.80
76996;DHT22;65929;49.062;10.338;2023-05-18T06:29:19;7.50;67.90
76996;DHT22;65929;49.062;10.338;2023-05-18T06:30:21;7.50;68.10
76996;DHT22;65929;49.062;10.338;2023-05-18T06:31:25;7.60;67.60
76996;DHT22;65929;49.062;10.338;2023-05-18T06:32:26;7.60;68.00
76996;DHT22;65929;49.062;10.338;2023-05-18T06:33:27;7.70;68.00
76996;DHT22;65929;49.062;10.338;2023-05-18T06:34:28;7.80;66.70
76996;DHT22;65929;49.062;10.338;2023-05-18T06:35:30;7.80;66.90